Time;durP1;ratioP1;P1;durP2;ratioP2;P2;SDS_P1;SDS_P2;PMS_P1;PMS_P2;Temp;Humidity;BMP_temperature;BMP_pressure;BME280_temperature;BME280_humidity;BME280_pressure;Samples;Min_cycle;Max_cycle;Signal;HPM_P1;HPM_P2
2022/04/24 00:00:12;;;;;;;1032.70;965.45;;;;;;;11.72;46.75;100235.91;680987;29;23451;-65
2022/04/24 00:00:33;;;;;;;1040.47;972.95;;;;;;;11.72;46.75;100235.06;681456;29;22397;-65
2022/04/24 00:00:54;;;;;;;1037.70;970.33;;;;;;;11.71;47.15;100236.94;681103;29;22473;-64
2022/04/24 00:01:16;;;;;;;1040.35;972.88;;;;;;;11.70;47.18;100240.66;680212;29;22544;-65
2022/04/24 00:01:37;;;;;;;1021.28;954.60;;;;;;;11.68;47.16;100237.34;681487;29;22481;-65
2022/04/24 00:01:58;;;;;;;1007.47;941.38;;;;;;;11.68;46.77;100239.22;680904;29;22406;-65
2022/04/24 00:02:20;;;;;;;1021.92;955.20;;;;;;;11.67;46.78;100240.22;680719;28;22178;-64
2022/04/24 00:02:42;;;;;;;1020.33;953.65;;;;;;;11.65;47.13;100235.03;680632;29;46032;-65
2022/04/24 00:03:10;;;;;;;1007.00;940.85;;;;;;;11.66;46.96;100235.84;679366;29;60284;-65
2022/04/24 00:03:32;;;;;;;1020.42;953.67;;;;;;;11.64;46.81;100235.22;681151;29;23401;-65
2022/04/24 00:03:54;;;;;;;1040.90;973.40;;;;;;;11.62;47.01;100237.28;680583;29;45234;-65
2022/04/24 00:04:15;;;;;;;1057.22;988.92;;;;;;;11.61;47.02;100232.91;679578;29;45439;-65
2022/04/24 00:04:37;;;;;;;1050.03;982.05;;;;;;;11.58;47.32;100236.00;681585;29;22284;-65
2022/04/24 00:05:00;;;;;;;1016.65;950.05;;;;;;;11.58;47.19;100236.00;680458;29;45322;-65
2022/04/24 00:05:21;;;;;;;1014.33;947.90;;;;;;;11.58;47.51;100236.00;679958;29;68312;-65
2022/04/24 00:05:42;;;;;;;1025.15;958.42;;;;;;;11.57;47.38;100235.19;682009;29;22394;-65
2022/04/24 00:06:03;;;;;;;1015.75;949.45;;;;;;;11.56;47.30;100230.78;681111;29;22396;-65
2022/04/24 00:06:25;;;;;;;996.33;930.65;;;;;;;11.53;47.18;100228.47;681144;29;10948;-65
2022/04/24 00:06:46;;;;;;;1003.70;937.70;;;;;;;11.53;47.54;100231.19;679355;29;68305;-65
2022/04/24 00:07:08;;;;;;;1014.70;948.28;;;;;;;11.53;47.60;100237.41;680755;29;23187;-65
2022/04/24 00:07:29;;;;;;;1002.38;936.47;;;;;;;11.54;47.13;100228.28;681416;29;22410;-65
2022/04/24 00:07:51;;;;;;;1000.72;934.92;;;;;;;11.54;47.57;100236.38;680765;29;45234;-65
2022/04/24 00:08:13;;;;;;;1021.40;954.65;;;;;;;11.52;47.54;100224.94;679444;29;45494;-65
2022/04/24 00:08:34;;;;;;;1023.17;956.40;;;;;;;11.53;47.27;100231.19;681572;29;23395;-65
2022/04/24 00:08:55;;;;;;;1011.75;945.47;;;;;;;11.51;47.63;100228.66;681090;29;22390;-65
2022/04/24 00:09:17;;;;;;;1023.70;956.88;;;;;;;11.49;47.57;100229.91;681061;29;22392;-65
2022/04/24 00:09:38;;;;;;;1038.80;971.33;;;;;;;11.49;47.55;100227.22;680031;29;45321;-65
2022/04/24 00:10:00;;;;;;;1026.22;959.22;;;;;;;11.48;47.36;100230.94;680532;29;46553;-65
2022/04/24 00:10:21;;;;;;;1023.03;956.22;;;;;;;11.48;47.76;100230.94;681568;29;22337;-65
2022/04/24 00:10:43;;;;;;;1018.33;951.78;;;;;;;11.48;47.63;100233.63;681084;29;22404;-65
2022/04/24 00:11:04;;;;;;;1031.50;964.42;;;;;;;11.49;47.80;100238.03;679864;29;45316;-65
2022/04/24 00:11:25;;;;;;;1019.40;952.65;;;;;;;11.47;47.66;100229.25;679597;29;45749;-65
2022/04/24 00:11:47;;;;;;;1024.90;957.92;;;;;;;11.48;47.53;100223.66;677140;29;22010;-65
2022/04/24 00:12:15;;;;;;;1021.03;954.22;;;;;;;11.47;47.76;100227.41;677263;29;23353;-65
2022/04/24 00:12:36;;;;;;;1019.05;952.33;;;;;;;11.48;47.58;100231.75;673812;29;136740;-65
2022/04/24 00:12:57;;;;;;;1025.88;958.95;;;;;;;11.52;47.58;100234.94;677305;29;23442;-65
2022/04/24 00:13:20;;;;;;;1019.30;952.60;;;;;;;11.52;47.37;100230.34;677184;29;22395;-64
2022/04/24 00:13:42;;;;;;;1031.15;964.05;;;;;;;11.54;47.28;100236.38;676622;29;45331;-65
2022/04/24 00:14:07;;;;;;;1037.05;969.65;;;;;;;11.54;47.43;100233.69;677582;29;45263;-65
2022/04/24 00:14:28;;;;;;;1033.35;966.13;;;;;;;11.53;47.31;100228.47;674768;29;137918;-65
2022/04/24 00:14:50;;;;;;;1029.88;962.85;;;;;;;11.52;47.53;100235.75;678816;29;23395;-64
2022/04/24 00:15:11;;;;;;;1057.75;989.53;;;;;;;11.53;47.27;100229.28;677750;29;45328;-65
2022/04/24 00:15:32;;;;;;;1055.95;987.80;;;;;;;11.54;47.28;100232.88;678051;29;22385;-65
2022/04/24 00:15:53;;;;;;;1038.80;971.38;;;;;;;11.52;47.55;100227.66;678019;29;24788;-64
2022/04/24 00:16:15;;;;;;;1040.63;972.92;;;;;;;11.53;47.44;100236.59;676946;29;23400;-64
2022/04/24 00:16:37;;;;;;;1050.90;982.78;;;;;;;11.52;47.30;100230.34;677647;29;28820;-64
2022/04/24 00:16:58;;;;;;;1049.47;981.63;;;;;;;11.48;47.56;100223.66;676774;29;44860;-64
2022/04/24 00:17:20;;;;;;;1033.28;966.05;;;;;;;11.48;47.54;100229.06;677806;29;22549;-65
2022/04/24 00:17:41;;;;;;;1016.58;950.05;;;;;;;11.47;47.38;100223.84;677120;29;47042;-65
2022/04/24 00:18:03;;;;;;;1045.45;977.78;;;;;;;11.46;47.44;100220.31;677553;29;22366;-65
2022/04/24 00:18:25;;;;;;;1032.03;964.83;;;;;;;11.46;47.48;100230.31;678868;29;1900;-65
2022/04/24 00:18:47;;;;;;;1028.88;961.85;;;;;;;11.45;47.70;100228.63;678151;29;23528;-64
2022/04/24 00:19:08;;;;;;;1034.47;967.28;;;;;;;11.42;47.67;100226.31;677000;29;47547;-65
2022/04/24 00:19:29;;;;;;;1018.30;951.58;;;;;;;11.42;47.54;100229.00;677908;29;23379;-65
2022/04/24 00:19:52;;;;;;;1028.00;960.88;;;;;;;11.41;47.94;100224.63;678546;29;23479;-65
2022/04/24 00:20:14;;;;;;;1029.88;962.85;;;;;;;11.41;47.57;100230.03;675684;29;92130;-65
2022/04/24 00:20:35;;;;;;;1028.05;961.10;;;;;;;11.41;47.98;100227.31;678566;29;22471;-64
2022/04/24 00:20:56;;;;;;;1020.17;953.53;;;;;;;11.41;47.61;100224.63;678511;29;23399;-64
2022/04/24 00:21:18;;;;;;;1035.97;968.67;;;;;;;11.41;47.68;100224.63;676528;29;47122;-64
2022/04/24 00:21:39;;;;;;;1030.60;963.47;;;;;;;11.40;47.77;100221.09;677552;29;46274;-64
2022/04/24 00:22:00;;;;;;;1020.20;953.47;;;;;;;11.39;47.75;100226.69;678050;29;23307;-65
2022/04/24 00:22:21;;;;;;;1021.40;954.65;;;;;;;11.37;47.46;100224.19;678477;29;22154;-65
2022/04/24 00:22:43;;;;;;;1019.35;952.83;;;;;;;11.38;47.48;100228.56;678547;29;22406;-64
2022/04/24 00:23:05;;;;;;;1050.88;983.10;;;;;;;11.38;47.81;100222.31;677441;29;46301;-64
2022/04/24 00:23:26;;;;;;;1064.93;996.63;;;;;;;11.38;47.55;100223.16;678989;29;23479;-64
2022/04/24 00:23:47;;;;;;;1059.18;991.00;;;;;;;11.38;47.62;100220.47;678632;29;23460;-64
2022/04/24 00:24:08;;;;;;;1031.38;964.25;;;;;;;11.36;47.79;100220.66;678068;29;23371;-64
2022/04/24 00:24:32;;;;;;;1034.95;967.60;;;;;;;11.36;47.86;100226.06;677627;29;45275;-64
2022/04/24 00:24:54;;;;;;;1056.85;988.65;;;;;;;11.37;47.61;100224.19;675745;29;93425;-64
2022/04/24 00:25:15;;;;;;;1053.53;985.33;;;;;;;11.36;47.98;100225.22;678381;29;23408;-64
2022/04/24 00:25:36;;;;;;;1059.35;991.05;;;;;;;11.38;47.59;100216.91;677536;29;46580;-64
2022/04/24 00:25:58;;;;;;;1049.82;981.92;;;;;;;11.36;47.60;100223.38;678695;29;22246;-64
2022/04/24 00:26:19;;;;;;;1049.32;981.38;;;;;;;11.36;47.89;100225.22;676194;29;46306;-64
2022/04/24 00:26:40;;;;;;;1016.97;950.35;;;;;;;11.38;48.01;100225.88;677831;29;22179;-64
2022/04/24 00:27:02;;;;;;;1031.40;964.30;;;;;;;11.39;48.06;100221.28;677968;29;22219;-64
2022/04/24 00:27:24;;;;;;;1033.53;966.33;;;;;;;11.40;47.67;100221.09;675994;29;44221;-65
2022/04/24 00:27:45;;;;;;;1035.80;968.45;;;;;;;11.40;47.94;100222.97;672746;29;46261;-63
2022/04/24 00:28:06;;;;;;;1043.03;975.40;;;;;;;11.42;47.75;100223.59;674046;29;23380;-64
2022/04/24 00:28:27;;;;;;;1050.50;982.47;;;;;;;11.42;47.83;100221.72;674224;29;22340;-64
2022/04/24 00:28:48;;;;;;;1060.32;992.03;;;;;;;11.42;47.65;100226.31;671247;29;21983;-65
2022/04/24 00:29:10;;;;;;;1032.85;965.63;;;;;;;11.43;47.83;100215.28;673886;29;22324;-64
2022/04/24 00:29:31;;;;;;;1018.50;951.63;;;;;;;11.44;47.53;100219.69;674343;29;44162;-65
2022/04/24 00:29:52;;;;;;;1039.35;971.58;;;;;;;11.45;47.74;100220.50;677714;29;22370;-64
2022/04/24 00:30:14;;;;;;;1024.75;957.72;;;;;;;11.46;47.63;100220.31;678051;29;22439;-64
2022/04/24 00:30:35;;;;;;;1015.03;948.45;;;;;;;11.44;47.41;100216.97;678279;29;21972;-64
2022/04/24 00:30:57;;;;;;;1031.63;964.45;;;;;;;11.45;47.46;100215.09;680324;28;22557;-64
2022/04/24 00:31:18;;;;;;;1036.03;968.70;;;;;;;11.46;47.77;100214.91;676514;29;46443;-63
2022/04/24 00:31:39;;;;;;;1033.07;965.95;;;;;;;11.47;47.67;100221.13;677773;29;23454;-64
2022/04/24 00:32:00;;;;;;;1025.53;958.67;;;;;;;11.44;47.47;100211.56;677354;29;44279;-64
2022/04/24 00:32:22;;;;;;;1029.15;962.10;;;;;;;11.45;47.46;100212.41;677799;29;23541;-64
2022/04/24 00:32:44;;;;;;;1037.32;970.00;;;;;;;11.44;47.79;100219.69;677709;29;46309;-64
2022/04/24 00:33:05;;;;;;;1021.83;955.08;;;;;;;11.44;47.41;100216.13;677985;29;23472;-64
2022/04/24 00:33:26;;;;;;;1029.80;962.67;;;;;;;11.42;47.60;100210.91;678690;29;23430;-64
2022/04/24 00:33:47;;;;;;;1020.85;954.15;;;;;;;11.44;47.57;100214.28;678111;29;22419;-64
2022/04/24 00:34:09;;;;;;;1026.53;959.55;;;;;;;11.44;47.38;100216.97;677991;29;23662;-64
2022/04/24 00:34:30;;;;;;;1027.32;960.33;;;;;;;11.44;47.74;100208.88;677352;29;46277;-65
2022/04/24 00:34:52;;;;;;;1015.78;949.25;;;;;;;11.45;47.51;100220.50;677217;29;47150;-64
2022/04/24 00:35:13;;;;;;;1016.95;950.38;;;;;;;11.44;47.46;100211.56;677334;29;44388;-64
2022/04/24 00:35:36;;;;;;;1017.50;950.92;;;;;;;11.44;47.80;100216.13;678312;29;23463;-64
2022/04/24 00:35:57;;;;;;;1016.97;950.40;;;;;;;11.44;47.92;100219.69;677225;29;46296;-64
2022/04/24 00:36:18;;;;;;;1039.35;971.90;;;;;;;11.44;47.74;100214.28;677519;29;22381;-64
2022/04/24 00:36:40;;;;;;;1045.32;977.65;;;;;;;11.43;47.38;100211.78;678114;29;22316;-64
2022/04/24 00:37:01;;;;;;;1035.32;968.08;;;;;;;11.43;47.57;100215.28;677344;29;44390;-64
2022/04/24 00:37:22;;;;;;;1014.33;947.83;;;;;;;11.43;47.43;100217.19;677185;29;46404;-65
2022/04/24 00:37:43;;;;;;;1020.67;953.95;;;;;;;11.43;47.89;100211.78;678293;29;22503;-64
2022/04/24 00:38:06;;;;;;;1034.65;967.42;;;;;;;11.41;47.58;100214.66;677956;29;22435;-64
2022/04/24 00:38:27;;;;;;;1026.50;959.35;;;;;;;11.40;47.76;100215.69;679854;29;1788;-64
2022/04/24 00:38:48;;;;;;;1020.95;953.97;;;;;;;11.42;47.62;100207.38;678579;29;18107;-64
2022/04/24 00:39:09;;;;;;;1012.38;945.95;;;;;;;11.42;47.82;100213.63;678199;29;23258;-64
2022/04/24 00:39:30;;;;;;;1024.32;957.42;;;;;;;11.42;47.81;100213.63;677935;29;22135;-64
2022/04/24 00:39:52;;;;;;;1026.80;959.65;;;;;;;11.42;47.86;100210.91;678150;29;22350;-64
2022/04/24 00:40:13;;;;;;;1007.45;941.13;;;;;;;11.42;47.43;100215.50;677121;29;44313;-64
2022/04/24 00:40:34;;;;;;;1029.10;961.92;;;;;;;11.41;47.57;100211.09;678527;29;2144;-64
2022/04/24 00:40:56;;;;;;;1035.95;968.65;;;;;;;11.41;47.76;100211.09;677798;29;23442;-64
2022/04/24 00:41:18;;;;;;;1016.88;950.25;;;;;;;11.39;47.64;100211.31;676387;29;46340;-64
2022/04/24 00:41:45;;;;;;;1022.50;955.63;;;;;;;11.38;47.92;100215.06;677023;29;46346;-64
2022/04/24 00:42:08;;;;;;;1031.82;964.70;;;;;;;11.35;47.79;100208.16;674179;29;135872;-64
2022/04/24 00:42:29;;;;;;;1012.80;946.28;;;;;;;11.38;47.68;100206.94;676506;29;67492;-64
2022/04/24 00:42:51;;;;;;;1016.33;949.83;;;;;;;11.38;47.80;100211.50;677827;29;23428;-64
2022/04/24 00:43:12;;;;;;;1024.32;957.42;;;;;;;11.37;47.72;100205.25;677077;29;45254;-64
2022/04/24 00:44:05;;;;;;;1013.80;947.38;;;;;;;11.35;47.89;100210.88;671566;29;136388;-64
2022/04/24 00:44:50;;;;;;;1021.67;954.85;;;;;;;11.34;47.82;100211.88;671502;29;137546;-65
2022/04/24 00:45:40;;;;;;;1031.90;964.78;;;;;;;11.32;47.89;100208.53;668917;29;160656;-64
2022/04/24 00:46:11;;;;;;;1038.00;970.55;;;;;;;11.30;48.07;100204.34;673541;29;45271;-64
2022/04/24 00:46:41;;;;;;;1015.17;948.58;;;;;;;11.28;48.26;100201.84;672447;29;99115;-64
2022/04/24 00:47:09;;;;;;;1019.85;953.17;;;;;;;11.30;47.74;100204.34;672762;29;85627;-64
2022/04/24 00:47:30;;;;;;;1025.93;959.03;;;;;;;11.29;47.89;100205.41;672028;29;138079;-64
2022/04/24 00:47:51;;;;;;;1031.82;964.72;;;;;;;11.28;47.98;100211.84;675790;29;22368;-63
2022/04/24 00:48:13;;;;;;;1016.88;950.33;;;;;;;11.26;47.86;100203.09;675300;29;23404;-64
2022/04/24 00:48:34;;;;;;;1009.20;942.85;;;;;;;11.25;47.75;100206.81;674931;29;44470;-64
2022/04/24 00:48:56;;;;;;;1024.25;957.40;;;;;;;11.23;48.24;100207.00;676383;29;990;-64
2022/04/24 00:49:17;;;;;;;1032.28;965.08;;;;;;;11.24;48.17;100214.09;677579;29;25177;-64
2022/04/24 00:49:39;;;;;;;1022.08;955.08;;;;;;;11.24;48.32;100208.69;677382;29;21536;-64
2022/04/24 00:50:02;;;;;;;1006.47;940.13;;;;;;;11.22;48.55;100210.72;676075;29;68422;-64
2022/04/24 00:50:23;;;;;;;1013.92;947.40;;;;;;;11.22;47.98;100209.91;676337;29;69391;-64
2022/04/24 00:50:44;;;;;;;1016.75;950.15;;;;;;;11.23;48.50;100208.88;678051;29;21575;-63
2022/04/24 00:51:06;;;;;;;1022.97;956.13;;;;;;;11.23;48.34;100211.59;677362;29;22487;-64
2022/04/24 00:51:28;;;;;;;1014.03;947.53;;;;;;;11.21;48.17;100209.09;674181;29;45225;-65
2022/04/24 00:51:49;;;;;;;1016.10;949.47;;;;;;;11.21;48.07;100211.78;674794;29;45186;-64
2022/04/24 00:52:12;;;;;;;1014.58;948.05;;;;;;;11.20;48.05;100206.56;675348;29;22511;-64
2022/04/24 00:52:34;;;;;;;1014.72;948.22;;;;;;;11.18;48.51;100204.06;675056;29;46389;-64
2022/04/24 00:52:55;;;;;;;1018.08;951.42;;;;;;;11.20;48.16;100209.28;674610;29;45188;-64
2022/04/24 00:53:16;;;;;;;1034.22;966.92;;;;;;;11.21;48.47;100208.22;675426;29;24345;-65
2022/04/24 00:53:38;;;;;;;1008.42;942.05;;;;;;;11.18;48.48;100204.06;675578;29;21534;-64
2022/04/24 00:53:59;;;;;;;1007.33;941.08;;;;;;;11.21;48.37;100202.81;674921;29;34153;-64
2022/04/24 00:54:20;;;;;;;1014.88;948.35;;;;;;;11.23;48.58;100201.59;675274;29;21545;-64
2022/04/24 00:54:43;;;;;;;1010.67;944.37;;;;;;;11.23;48.41;100203.47;675482;29;22377;-64
2022/04/24 00:55:05;;;;;;;1010.72;944.42;;;;;;;11.23;48.49;100206.19;674274;29;67553;-64
2022/04/24 00:55:26;;;;;;;1023.45;956.67;;;;;;;11.22;48.18;100204.50;674535;29;46616;-64
2022/04/24 00:55:48;;;;;;;1020.38;953.80;;;;;;;11.22;48.45;100196.38;675089;29;46360;-64
2022/04/24 00:56:09;;;;;;;1006.35;940.15;;;;;;;11.22;48.43;100193.69;675387;29;22236;-64
2022/04/24 00:56:32;;;;;;;1017.95;951.22;;;;;;;11.23;48.26;100193.50;674155;29;47011;-64
2022/04/24 00:56:53;;;;;;;1006.45;940.22;;;;;;;11.22;48.08;100193.69;674003;29;70696;-64
2022/04/24 00:57:14;;;;;;;1016.00;949.33;;;;;;;11.20;48.33;100195.75;678161;29;23415;-64
2022/04/24 00:57:43;;;;;;;1027.20;960.17;;;;;;;11.15;48.46;100191.75;676863;29;60072;-65
2022/04/24 00:58:05;;;;;;;1020.70;953.88;;;;;;;11.14;48.26;100192.81;677166;29;45181;-64
2022/04/24 00:58:26;;;;;;;1025.85;958.85;;;;;;;11.12;48.15;100194.84;677091;29;46279;-64
2022/04/24 00:58:48;;;;;;;1016.35;949.70;;;;;;;11.13;48.40;100193.00;677866;29;23396;-64
2022/04/24 00:59:12;;;;;;;1020.28;953.55;;;;;;;11.10;48.34;100194.22;675477;29;44382;-64
2022/04/24 00:59:34;;;;;;;1012.28;945.65;;;;;;;11.09;48.35;100189.84;672802;29;92120;-64
2022/04/24 00:59:55;;;;;;;1015.20;948.42;;;;;;;11.07;48.61;100191.91;674536;29;44433;-64
2022/04/24 01:00:17;;;;;;;1015.03;948.38;;;;;;;11.06;48.54;100190.22;675524;29;23426;-64
2022/04/24 01:00:38;;;;;;;1021.72;954.88;;;;;;;11.05;48.80;100185.00;675270;29;46304;-64
2022/04/24 01:01:01;;;;;;;1008.95;942.65;;;;;;;11.04;48.74;100192.28;676515;29;22501;-64
2022/04/24 01:01:22;;;;;;;1014.08;947.63;;;;;;;11.04;48.52;100194.16;674355;29;67106;-64
2022/04/24 01:01:43;;;;;;;1015.67;949.15;;;;;;;11.03;48.50;100192.47;676402;29;22442;-64
2022/04/24 01:02:09;;;;;;;1009.35;942.97;;;;;;;11.03;48.94;100190.59;677062;29;14528;-64
2022/04/24 01:02:31;;;;;;;1020.78;953.97;;;;;;;11.02;49.05;100191.66;674927;29;68322;-64
2022/04/24 01:02:52;;;;;;;1019.40;952.60;;;;;;;11.03;48.78;100192.47;675116;29;47450;-64
2022/04/24 01:03:13;;;;;;;1016.30;949.75;;;;;;;11.03;48.94;100192.47;675578;29;22363;-64
2022/04/24 01:03:35;;;;;;;1001.90;935.90;;;;;;;11.03;48.57;100192.47;676020;29;22479;-64
2022/04/24 01:03:59;;;;;;;994.17;928.45;;;;;;;11.03;48.64;100192.47;674692;29;46119;-64
2022/04/24 01:04:21;;;;;;;1010.47;944.13;;;;;;;11.03;48.62;100187.06;672570;29;113617;-64
2022/04/24 01:04:42;;;;;;;1022.35;955.47;;;;;;;11.02;48.79;100191.66;674816;29;43717;-64
2022/04/24 01:05:08;;;;;;;1024.15;957.28;;;;;;;11.01;48.60;100187.28;675680;29;22473;-64
2022/04/24 01:05:29;;;;;;;1016.63;949.83;;;;;;;11.03;49.08;100197.88;672760;29;115101;-64
2022/04/24 01:05:51;;;;;;;1013.40;946.85;;;;;;;11.02;48.98;100190.81;675928;29;22395;-64
2022/04/24 01:06:12;;;;;;;1017.53;950.83;;;;;;;11.02;48.55;100185.41;674485;29;46391;-64
2022/04/24 01:06:36;;;;;;;1016.78;950.10;;;;;;;11.00;48.63;100183.75;654141;29;5802;-64
2022/04/24 01:06:57;;;;;;;1014.42;947.92;;;;;;;11.01;48.59;100189.97;675760;29;92257;-64
2022/04/24 01:07:19;;;;;;;1005.03;938.78;;;;;;;11.00;48.69;100191.00;678080;29;24337;-64
2022/04/24 01:07:40;;;;;;;1012.75;946.28;;;;;;;11.00;48.56;100188.28;677208;29;44366;-64
2022/04/24 01:08:02;;;;;;;1027.75;960.75;;;;;;;10.99;48.69;100187.47;677933;29;21048;-64
2022/04/24 01:08:23;;;;;;;1025.70;958.65;;;;;;;10.99;49.00;100187.47;677808;29;21441;-64
2022/04/24 01:08:44;;;;;;;1018.33;951.67;;;;;;;10.98;48.75;100188.47;677720;29;22411;-64
2022/04/24 01:09:13;;;;;;;1004.83;938.70;;;;;;;11.01;48.71;100184.56;678054;29;23442;-64
2022/04/24 01:09:35;;;;;;;992.75;926.92;;;;;;;11.00;49.03;100189.16;673580;29;136167;-64
2022/04/24 01:09:57;;;;;;;1013.70;946.95;;;;;;;11.03;48.85;100189.78;675627;29;45181;-64
2022/04/24 01:10:19;;;;;;;1017.63;950.92;;;;;;;11.02;49.00;100191.66;675774;29;22408;-64
2022/04/24 01:10:40;;;;;;;1021.33;954.53;;;;;;;11.02;48.68;100190.81;674962;29;47133;-64
2022/04/24 01:11:01;;;;;;;1009.45;943.17;;;;;;;11.00;48.99;100194.56;675341;29;44349;-64
2022/04/24 01:11:22;;;;;;;1011.35;944.95;;;;;;;11.00;49.06;100189.16;675527;29;22415;-64
2022/04/24 01:11:48;;;;;;;1025.18;958.30;;;;;;;10.99;49.01;100192.03;675812;29;22361;-64
2022/04/24 01:12:10;;;;;;;1015.88;949.35;;;;;;;11.00;49.00;100191.84;670790;29;137983;-64
2022/04/24 01:12:31;;;;;;;1015.70;949.08;;;;;;;10.99;49.00;100192.88;675339;29;22327;-64
2022/04/24 01:12:52;;;;;;;1010.10;943.72;;;;;;;10.97;49.21;100186.81;674698;29;46587;-64
2022/04/24 01:13:14;;;;;;;1010.75;944.22;;;;;;;10.99;49.13;100195.56;674777;29;23502;-64
2022/04/24 01:13:35;;;;;;;1005.72;939.45;;;;;;;10.97;48.90;100185.97;674549;29;46380;-64
2022/04/24 01:13:56;;;;;;;1000.83;934.85;;;;;;;10.99;49.22;100195.56;675347;29;22405;-64
2022/04/24 01:14:18;;;;;;;1007.72;941.42;;;;;;;11.00;49.01;100182.88;675160;29;23487;-64
2022/04/24 01:14:40;;;;;;;995.10;929.13;;;;;;;11.01;49.22;100184.56;674499;29;45219;-64
2022/04/24 01:15:01;;;;;;;999.45;933.40;;;;;;;11.02;48.88;100193.50;674782;29;46655;-64
2022/04/24 01:15:22;;;;;;;994.38;928.58;;;;;;;11.00;49.02;100182.88;675608;29;24879;-64
2022/04/24 01:15:43;;;;;;;1005.60;939.47;;;;;;;11.00;48.79;100186.44;676056;29;23410;-64
2022/04/24 01:16:04;;;;;;;1006.97;940.85;;;;;;;11.01;49.12;100189.97;675671;29;22272;-64
2022/04/24 01:16:26;;;;;;;1004.08;937.92;;;;;;;11.02;49.21;100180.84;675284;29;22370;-64
2022/04/24 01:16:48;;;;;;;1014.00;947.40;;;;;;;11.01;48.86;100187.28;674758;29;46314;-64
2022/04/24 01:17:09;;;;;;;1006.70;940.47;;;;;;;11.03;48.86;100190.59;675702;29;23494;-64
2022/04/24 01:17:30;;;;;;;1007.97;941.55;;;;;;;11.05;49.12;100191.28;675772;29;23485;-64
2022/04/24 01:17:53;;;;;;;1007.22;940.92;;;;;;;11.05;48.88;100185.88;675677;29;17939;-64
2022/04/24 01:18:14;;;;;;;1005.65;939.53;;;;;;;11.03;48.97;100187.91;674344;29;46396;-64
2022/04/24 01:18:36;;;;;;;999.70;933.75;;;;;;;11.04;48.81;100194.16;675575;29;22397;-64
2022/04/24 01:18:57;;;;;;;1012.28;945.85;;;;;;;11.03;49.00;100187.91;674519;29;46541;-64
2022/04/24 01:19:20;;;;;;;1021.35;954.55;;;;;;;11.04;49.06;100186.88;674753;29;44337;-64
2022/04/24 01:19:41;;;;;;;1018.47;951.47;;;;;;;11.02;49.02;100188.94;673707;29;45779;-65
2022/04/24 01:20:03;;;;;;;1003.25;937.00;;;;;;;11.03;48.68;100187.06;675462;29;22390;-64
2022/04/24 01:20:25;;;;;;;1016.10;949.45;;;;;;;11.03;48.84;100187.06;674909;29;46239;-64
2022/04/24 01:20:47;;;;;;;1017.25;950.55;;;;;;;11.02;49.06;100183.56;674078;29;69366;-64
2022/04/24 01:21:09;;;;;;;1004.50;938.30;;;;;;;11.00;48.78;100183.75;674041;29;44386;-65
2022/04/24 01:21:30;;;;;;;994.58;928.67;;;;;;;10.99;48.71;100182.06;674529;29;46370;-65
2022/04/24 01:21:53;;;;;;;1006.40;940.17;;;;;;;11.00;48.78;100183.75;676245;29;23445;-65
2022/04/24 01:22:15;;;;;;;1014.13;947.58;;;;;;;11.00;49.19;100183.75;673799;29;67483;-65
2022/04/24 01:22:36;;;;;;;998.63;932.70;;;;;;;11.00;48.68;100182.88;675436;29;46369;-64
2022/04/24 01:22:57;;;;;;;1006.42;940.15;;;;;;;11.00;49.13;100182.88;675304;29;22373;-64
2022/04/24 01:23:19;;;;;;;1015.78;949.10;;;;;;;10.99;48.76;100186.63;675561;29;21536;-64
2022/04/24 01:23:40;;;;;;;1007.08;940.78;;;;;;;10.99;49.05;100181.22;674849;29;46794;-65
2022/04/24 01:24:04;;;;;;;1000.20;934.25;;;;;;;10.96;49.05;100187.84;675617;29;23444;-65
2022/04/24 01:24:28;;;;;;;1019.05;952.30;;;;;;;10.95;49.15;100180.75;673089;29;92401;-64
2022/04/24 01:24:50;;;;;;;1025.85;958.88;;;;;;;10.97;49.08;100185.97;673387;29;90463;-64
2022/04/24 01:25:13;;;;;;;1005.58;939.38;;;;;;;10.96;48.81;100184.31;674698;29;46265;-64
2022/04/24 01:25:34;;;;;;;1012.22;945.78;;;;;;;10.95;48.95;100186.16;674608;29;67202;-64
2022/04/24 01:25:55;;;;;;;1009.58;943.33;;;;;;;10.94;49.05;100181.81;676119;29;23412;-64
2022/04/24 01:26:18;;;;;;;1008.03;941.78;;;;;;;10.94;48.94;100181.81;675626;29;4204;-64
2022/04/24 01:26:39;;;;;;;1006.40;940.25;;;;;;;10.95;49.12;100182.63;674833;29;46348;-64
2022/04/24 01:27:01;;;;;;;1002.67;936.63;;;;;;;10.95;48.97;100177.22;675354;29;23482;-66
2022/04/24 01:27:22;;;;;;;1008.70;942.33;;;;;;;10.94;49.27;100181.81;674715;29;46108;-64
2022/04/24 01:27:44;;;;;;;999.15;933.17;;;;;;;10.94;49.05;100180.97;675570;29;21550;-64
2022/04/24 01:28:09;;;;;;;1002.50;936.45;;;;;;;10.92;49.13;100185.72;674672;29;44329;-64
2022/04/24 01:28:30;;;;;;;1013.65;947.03;;;;;;;10.91;49.13;100184.03;674818;29;66559;-64
2022/04/24 01:28:51;;;;;;;1012.40;946.00;;;;;;;10.91;49.38;100184.03;676485;29;22404;-64
2022/04/24 01:29:14;;;;;;;1012.13;945.72;;;;;;;10.90;49.03;100177.81;676480;29;22405;-65
2022/04/24 01:29:35;;;;;;;1005.38;938.95;;;;;;;10.90;49.31;100175.09;673720;29;69521;-65
2022/04/24 01:29:56;;;;;;;1003.47;937.05;;;;;;;10.89;49.36;100183.41;675716;29;46292;-65
2022/04/24 01:30:17;;;;;;;1006.85;940.50;;;;;;;10.89;49.27;100180.72;676253;29;24442;-65
2022/04/24 01:30:39;;;;;;;995.78;929.80;;;;;;;10.87;49.47;100178.19;675571;29;22381;-65
2022/04/24 01:31:00;;;;;;;1012.22;945.67;;;;;;;10.89;49.41;100180.72;674584;29;46305;-65
2022/04/24 01:31:22;;;;;;;1018.33;951.60;;;;;;;10.90;49.56;100177.81;674879;29;23563;-65
2022/04/24 01:31:44;;;;;;;1006.13;939.83;;;;;;;10.89;49.46;100178.00;675774;29;22437;-65
2022/04/24 01:32:07;;;;;;;1000.55;934.53;;;;;;;10.87;49.11;100169.25;674863;29;69417;-64
2022/04/24 01:32:28;;;;;;;1009.10;942.63;;;;;;;10.89;49.43;100178.84;673830;29;69568;-64
2022/04/24 01:32:49;;;;;;;1009.58;943.15;;;;;;;10.88;49.57;100177.19;678146;29;22214;-64
2022/04/24 01:33:10;;;;;;;1009.15;942.83;;;;;;;10.88;49.06;100185.28;677536;29;21533;-65
2022/04/24 01:33:32;;;;;;;1009.03;942.67;;;;;;;10.88;49.45;100179.88;678159;29;23976;-64
2022/04/24 01:33:53;;;;;;;1008.20;941.83;;;;;;;10.88;49.58;100181.72;677574;29;45248;-65
2022/04/24 01:34:15;;;;;;;1001.25;935.25;;;;;;;10.87;49.42;100182.78;677896;29;22383;-65
2022/04/24 01:34:37;;;;;;;992.83;927.15;;;;;;;10.87;49.57;100174.66;677371;29;46255;-64
2022/04/24 01:34:58;;;;;;;1021.58;954.65;;;;;;;10.87;49.25;100178.19;674346;29;46270;-64
2022/04/24 01:35:19;;;;;;;1008.22;941.75;;;;;;;10.86;49.26;100179.25;675567;29;22347;-64
2022/04/24 01:35:41;;;;;;;993.40;927.63;;;;;;;10.87;49.58;100177.38;675770;29;22052;-65
2022/04/24 01:36:04;;;;;;;1012.70;946.20;;;;;;;10.88;49.55;100179.03;675065;29;46440;-64
2022/04/24 01:36:25;;;;;;;1006.10;939.80;;;;;;;10.88;49.23;100170.91;673610;29;68339;-65
2022/04/24 01:36:47;;;;;;;1000.63;934.55;;;;;;;10.87;49.34;100178.19;675601;29;23374;-65
2022/04/24 01:37:08;;;;;;;1003.72;937.63;;;;;;;10.87;49.62;100178.19;674672;29;46422;-64
2022/04/24 01:37:30;;;;;;;997.63;931.67;;;;;;;10.88;49.27;100176.31;675855;29;22353;-64
2022/04/24 01:37:51;;;;;;;996.53;930.55;;;;;;;10.87;49.48;100183.59;674937;29;44168;-64
2022/04/24 01:38:12;;;;;;;1011.88;945.45;;;;;;;10.87;49.44;100183.59;675507;29;21551;-65
2022/04/24 01:38:33;;;;;;;1011.35;945.00;;;;;;;10.86;49.16;100173.84;675573;29;22343;-65